Terminal Aerodrome Forecast
Issued by NWS Houston/Galveston, TX

Home | Current Version | Previous Version | Text Only | Print | Product List | Glossary On
Versions: 1 2 3 4 5 6 7 8 9 10 11 12 13 14 15 16 17 18 19 20 21
000
FTUS44 KHGX 272321
TAFGLS
TAF
KGLS 272321Z 2800/2824 18010KT P6SM SCT050 BKN120
     FM280900 18009KT P6SM SCT020 BKN250
     FM281200 18010KT P6SM VCSH SCT020 BKN035
     FM281600 16008KT P6SM VCTS BKN050CB
     FM282100 17010KT P6SM BKN250=

USA.gov is the U.S. government's official web portal to all federal, state and local government web resources and services.